Connexion S'enregistrer

Connexion à votre compte

Identifiant
Mot de passe
Maintenir la connexion active sur ce site

Créer un compte

Pour valider ce formulaire, vous devez remplir tous les champs.
Nom
Identifiant
Mot de passe
Répétez le mot de passe
Adresse e-mail
Répétez l'adresse e-mail

Nous contacter

 Téléphone : +33 (0)4 79 54 41 81

Coordonnées détaillées et accès : cliquez ici

 
LFLB °C
    Ferienhaus Ostsee
[source: ADDS]
METAR
LFLB 091130Z AUTO 01004KT 320V050 CAVOK 32/15 Q1016 TEMPO FEW100TCU =
TAF LFLB 091100Z 0912/1012 35007KT CAVOK TEMPO 1000/1009 VRB02KT BECMG 1010/1012 FEW090TCU
TAF
TAF LFLB 091100Z 0912/1012 35007KT CAVOK TEMPO 1000/1009 VRB02KT BECMG 1010/1012 FEW090TCU =
SR / SS: 04:30 / 18:53 UTC (Lever/Coucher du soleil le 2020-08-09)
JSN Boot template designed by JoomlaShine.com